Time;durP1;ratioP1;P1;durP2;ratioP2;P2;SDS_P1;SDS_P2;PMS_P1;PMS_P2;Temp;Humidity;BMP_temperature;BMP_pressure;BME280_temperature;BME280_humidity;BME280_pressure;Samples;Min_cycle;Max_cycle;Signal;HPM_P1;HPM_P2
2020/12/27 00:02:07;;;;;;;2.92;2.05;;;5.70;92.70;;;;;;5080185;28;20453;-50
2020/12/27 00:04:33;;;;;;;2.08;1.77;;;5.80;92.70;;;;;;5082308;28;20101;-48
2020/12/27 00:07:17;;;;;;;2.00;1.65;;;5.80;92.50;;;;;;5079159;28;20056;-49
2020/12/27 00:09:44;;;;;;;2.53;1.75;;;5.80;92.50;;;;;;5082238;28;20093;-47
2020/12/27 00:12:11;;;;;;;2.10;1.90;;;5.80;92.40;;;;;;5078267;28;20043;-52
2020/12/27 00:14:37;;;;;;;1.92;1.73;;;5.80;92.50;;;;;;5079932;28;20040;-47
2020/12/27 00:17:08;;;;;;;2.40;2.20;;;5.80;92.40;;;;;;5077505;28;20448;-51
2020/12/27 00:19:35;;;;;;;2.95;1.33;;;5.80;92.30;;;;;;5079612;28;20043;-49
2020/12/27 00:22:02;;;;;;;2.05;1.60;;;5.80;92.10;;;;;;5079016;28;20051;-50
2020/12/27 00:24:28;;;;;;;1.95;1.55;;;5.80;92.20;;;;;;5081171;28;20085;-48
2020/12/27 00:26:54;;;;;;;1.90;1.70;;;5.80;92.00;;;;;;5082706;28;20040;-46
2020/12/27 00:29:20;;;;;;;1.60;1.50;;;5.80;92.00;;;;;;5079399;28;20044;-52
2020/12/27 00:31:49;;;;;;;2.25;1.77;;;5.80;91.90;;;;;;5082650;28;20047;-47
2020/12/27 00:34:15;;;;;;;1.70;1.60;;;5.80;92.00;;;;;;5079068;28;20055;-51
2020/12/27 00:36:41;;;;;;;1.73;1.40;;;5.70;91.90;;;;;;5081772;28;20044;-49
2020/12/27 00:39:06;;;;;;;1.88;1.60;;;5.80;91.70;;;;;;5075504;28;20047;-49
2020/12/27 00:41:33;;;;;;;1.55;1.42;;;5.80;91.60;;;;;;5081225;28;20466;-48
2020/12/27 00:43:59;;;;;;;1.58;1.48;;;5.80;91.30;;;;;;5078934;28;20048;-49
2020/12/27 00:46:25;;;;;;;2.40;1.50;;;5.80;91.60;;;;;;5080977;28;20044;-47
2020/12/27 00:48:54;;;;;;;1.83;1.40;;;5.70;91.50;;;;;;5075822;28;20044;-50
2020/12/27 00:51:23;;;;;;;1.42;1.25;;;5.80;91.50;;;;;;5077478;28;20048;-49
2020/12/27 00:53:49;;;;;;;1.55;1.20;;;5.80;91.30;;;;;;5080568;28;20039;-47
2020/12/27 00:56:15;;;;;;;1.35;1.20;;;5.80;91.40;;;;;;5085253;28;20040;-52
2020/12/27 00:58:42;;;;;;;1.70;1.60;;;5.70;91.40;;;;;;5080018;28;20048;-48
2020/12/27 01:01:09;;;;;;;1.20;1.10;;;5.70;91.50;;;;;;5078826;28;20040;-46
2020/12/27 01:03:35;;;;;;;1.23;1.13;;;5.70;91.40;;;;;;5075946;28;20032;-53
2020/12/27 01:06:01;;;;;;;2.28;1.10;;;5.70;91.40;;;;;;5082741;28;20039;-58
2020/12/27 01:08:28;;;;;;;1.65;0.98;;;5.70;91.70;;;;;;5080907;28;20036;-58
2020/12/27 01:10:54;;;;;;;1.20;1.10;;;5.70;91.50;;;;;;5081799;28;20040;-59
2020/12/27 01:13:19;;;;;;;1.80;1.00;;;5.70;91.70;;;;;;5079774;28;20441;-57
2020/12/27 01:15:47;;;;;;;1.65;0.95;;;5.70;91.60;;;;;;5079761;28;20123;-57
2020/12/27 01:18:12;;;;;;;1.20;1.08;;;5.70;91.60;;;;;;5077677;28;20124;-57
2020/12/27 01:20:38;;;;;;;1.75;1.00;;;5.70;91.60;;;;;;5077811;28;20498;-57
2020/12/27 01:23:05;;;;;;;1.10;1.00;;;5.60;91.70;;;;;;5080327;28;20040;-57
2020/12/27 01:25:30;;;;;;;2.00;0.80;;;5.60;91.70;;;;;;5085790;28;20444;-57
2020/12/27 01:27:56;;;;;;;1.20;1.10;;;5.60;91.60;;;;;;5079614;28;20044;-57
2020/12/27 01:30:22;;;;;;;1.38;1.15;;;5.60;91.70;;;;;;5080495;28;20081;-57
2020/12/27 01:32:47;;;;;;;0.80;0.80;;;5.60;91.60;;;;;;5076925;28;20047;-56
2020/12/27 01:35:13;;;;;;;0.80;0.75;;;5.60;91.40;;;;;;5079608;28;20045;-56
2020/12/27 01:37:39;;;;;;;0.82;0.70;;;5.60;91.40;;;;;;5082699;28;20050;-57
2020/12/27 01:40:05;;;;;;;0.90;0.70;;;5.60;91.30;;;;;;5074917;28;20131;-57
2020/12/27 01:42:31;;;;;;;1.00;0.80;;;5.60;91.30;;;;;;5079127;28;20119;-56
2020/12/27 01:44:56;;;;;;;0.80;0.70;;;5.60;91.30;;;;;;5081041;28;20131;-57
2020/12/27 01:47:23;;;;;;;1.38;0.85;;;5.60;91.20;;;;;;5083833;28;20580;-56
2020/12/27 01:49:50;;;;;;;0.70;0.70;;;5.60;91.10;;;;;;5079174;28;20521;-56
2020/12/27 01:52:17;;;;;;;1.10;0.70;;;5.60;90.90;;;;;;5077773;28;20047;-56
2020/12/27 01:54:44;;;;;;;1.13;0.70;;;5.60;91.10;;;;;;5078692;28;20475;-56
2020/12/27 01:57:16;;;;;;;0.80;0.70;;;5.60;91.10;;;;;;5083741;28;20094;-57
2020/12/27 01:59:42;;;;;;;0.70;0.60;;;5.60;91.10;;;;;;5074748;28;20033;-56
2020/12/27 02:02:08;;;;;;;1.73;0.80;;;5.60;90.90;;;;;;5077970;28;20039;-57
2020/12/27 02:04:34;;;;;;;0.75;0.65;;;5.60;91.10;;;;;;5078466;28;20127;-57
2020/12/27 02:07:03;;;;;;;2.17;0.60;;;5.50;91.20;;;;;;5081593;28;20122;-56
2020/12/27 02:09:30;;;;;;;1.00;0.60;;;5.50;91.00;;;;;;5075562;28;20136;-56
2020/12/27 02:12:08;;;;;;;0.77;0.60;;;5.50;91.10;;;;;;5079419;28;20032;-56
2020/12/27 02:14:35;;;;;;;1.63;0.77;;;5.50;91.00;;;;;;5080555;28;20036;-56
2020/12/27 02:17:05;;;;;;;2.78;0.68;;;5.50;91.30;;;;;;5081771;28;20147;-56
2020/12/27 02:19:30;;;;;;;1.10;0.82;;;5.50;91.10;;;;;;5077902;28;20052;-57
2020/12/27 02:21:56;;;;;;;1.00;0.60;;;5.40;91.20;;;;;;5076303;28;20578;-57
2020/12/27 02:24:23;;;;;;;1.08;0.63;;;5.40;91.30;;;;;;5078359;28;20094;-56
2020/12/27 02:27:00;;;;;;;2.22;0.60;;;5.40;91.00;;;;;;5080594;28;20034;-56
2020/12/27 02:29:30;;;;;;;1.02;0.70;;;5.40;91.00;;;;;;5075428;28;20048;-56
2020/12/27 02:31:56;;;;;;;0.85;0.60;;;5.40;91.10;;;;;;5078917;28;20079;-56
2020/12/27 02:34:23;;;;;;;0.80;0.60;;;5.30;90.90;;;;;;5076998;28;20056;-56
2020/12/27 02:36:50;;;;;;;0.90;0.80;;;5.30;91.00;;;;;;5076765;28;20503;-56
2020/12/27 02:39:18;;;;;;;0.70;0.50;;;5.30;91.10;;;;;;5078187;28;21858;-56
2020/12/27 02:41:47;;;;;;;0.85;0.45;;;5.30;91.10;;;;;;5074689;28;20037;-56
2020/12/27 02:44:13;;;;;;;1.30;0.45;;;5.30;91.00;;;;;;5077127;28;20573;-56
2020/12/27 02:46:39;;;;;;;0.70;0.50;;;5.20;90.90;;;;;;5078951;28;20122;-56
2020/12/27 02:49:04;;;;;;;1.08;0.40;;;5.20;91.00;;;;;;5077231;28;20511;-56
2020/12/27 02:51:30;;;;;;;1.05;0.50;;;5.20;91.00;;;;;;5074205;28;20399;-56
2020/12/27 02:53:57;;;;;;;0.80;0.60;;;5.20;90.70;;;;;;5079948;28;20087;-56
2020/12/27 02:56:24;;;;;;;2.10;0.60;;;5.20;90.80;;;;;;5083609;28;20500;-56
2020/12/27 02:58:53;;;;;;;2.20;0.55;;;5.20;90.80;;;;;;5076278;28;20062;-56
2020/12/27 03:01:18;;;;;;;0.90;0.70;;;5.20;90.60;;;;;;5075575;28;20051;-56
2020/12/27 03:03:45;;;;;;;1.85;0.70;;;5.20;90.70;;;;;;5073496;28;20040;-56
2020/12/27 03:06:11;;;;;;;1.40;0.73;;;5.20;90.60;;;;;;5078641;28;20041;-56
2020/12/27 03:08:38;;;;;;;1.15;0.73;;;5.10;90.70;;;;;;5071195;28;20039;-56
2020/12/27 03:11:04;;;;;;;1.88;1.13;;;5.10;90.50;;;;;;5075072;28;20035;-56
2020/12/27 03:13:32;;;;;;;2.58;0.70;;;5.10;90.70;;;;;;5073270;28;20047;-56
2020/12/27 03:15:58;;;;;;;1.45;0.80;;;5.10;90.60;;;;;;5075474;28;20036;-56
2020/12/27 03:18:25;;;;;;;2.03;1.10;;;5.10;90.60;;;;;;5071682;28;20147;-56
2020/12/27 03:20:51;;;;;;;1.15;0.88;;;5.10;90.40;;;;;;5076248;28;20127;-56
2020/12/27 03:23:17;;;;;;;2.13;1.33;;;5.10;90.20;;;;;;5076680;28;20542;-57
2020/12/27 03:25:43;;;;;;;1.50;1.17;;;5.10;90.00;;;;;;5080000;28;20047;-56
2020/12/27 03:28:09;;;;;;;1.63;1.13;;;5.10;90.20;;;;;;5077374;28;20130;-56
2020/12/27 03:30:36;;;;;;;1.63;1.38;;;5.10;90.30;;;;;;5078866;28;20486;-59
2020/12/27 03:33:02;;;;;;;1.58;1.25;;;5.10;90.10;;;;;;5076205;28;21270;-56
2020/12/27 03:35:27;;;;;;;1.17;1.00;;;5.10;90.10;;;;;;5079939;28;20028;-56
2020/12/27 03:37:53;;;;;;;1.85;1.48;;;5.10;90.10;;;;;;5077951;28;20040;-56
2020/12/27 03:40:19;;;;;;;1.92;1.30;;;5.10;90.20;;;;;;5083371;28;20086;-56
2020/12/27 03:42:44;;;;;;;1.33;1.20;;;5.10;90.10;;;;;;5076846;28;20450;-56
2020/12/27 03:45:10;;;;;;;1.70;1.30;;;5.10;90.00;;;;;;5081242;28;20032;-56
2020/12/27 03:47:36;;;;;;;3.17;1.00;;;5.10;90.00;;;;;;5083624;28;20036;-57
2020/12/27 03:50:03;;;;;;;2.63;1.25;;;5.10;89.60;;;;;;5079906;28;20039;-57
2020/12/27 03:52:28;;;;;;;1.70;1.40;;;5.10;89.70;;;;;;5078828;28;20109;-56
2020/12/27 03:54:54;;;;;;;1.30;1.10;;;5.10;89.80;;;;;;5081775;28;20378;-57
2020/12/27 03:57:20;;;;;;;1.90;1.40;;;5.10;89.40;;;;;;5077156;28;20037;-57
2020/12/27 03:59:46;;;;;;;1.33;0.95;;;5.10;89.60;;;;;;5075649;28;20075;-57
2020/12/27 04:02:11;;;;;;;2.30;1.40;;;5.10;89.30;;;;;;5076091;28;20128;-57
2020/12/27 04:04:37;;;;;;;1.73;1.45;;;5.10;89.80;;;;;;5078989;28;20493;-57
2020/12/27 04:07:03;;;;;;;1.85;1.50;;;5.10;90.20;;;;;;5078608;28;20398;-57
2020/12/27 04:09:29;;;;;;;1.92;1.45;;;5.10;90.50;;;;;;5074772;28;20498;-57
2020/12/27 04:11:55;;;;;;;1.77;1.63;;;5.00;90.60;;;;;;5077344;28;20032;-57
2020/12/27 04:14:20;;;;;;;2.63;1.77;;;5.00;90.70;;;;;;5078747;28;20047;-56
2020/12/27 04:16:46;;;;;;;3.22;1.83;;;5.00;91.00;;;;;;5079967;28;20032;-57
2020/12/27 04:19:12;;;;;;;2.00;1.50;;;4.90;90.90;;;;;;5078465;28;20039;-58
2020/12/27 04:21:37;;;;;;;2.90;2.28;;;5.00;91.00;;;;;;5078081;28;20055;-57
2020/12/27 04:24:07;;;;;;;2.03;1.48;;;4.90;91.10;;;;;;5072803;28;20029;-57
2020/12/27 04:26:33;;;;;;;1.77;1.23;;;4.90;90.90;;;;;;5081032;28;20127;-57
2020/12/27 04:28:59;;;;;;;1.40;1.30;;;4.90;91.00;;;;;;5077843;28;20115;-57
2020/12/27 04:31:25;;;;;;;1.33;1.23;;;4.90;91.10;;;;;;5080832;28;20477;-57
2020/12/27 04:33:52;;;;;;;1.38;0.90;;;4.90;91.20;;;;;;5074352;28;20064;-57
2020/12/27 04:36:19;;;;;;;1.13;0.90;;;4.90;91.10;;;;;;5079797;28;20479;-57
2020/12/27 04:38:46;;;;;;;1.08;0.90;;;4.90;91.30;;;;;;5075337;28;20032;-57
2020/12/27 04:41:16;;;;;;;1.58;0.90;;;4.90;91.40;;;;;;5080668;28;20052;-57
2020/12/27 04:43:42;;;;;;;1.20;0.80;;;4.90;91.40;;;;;;5076650;28;20048;-57
2020/12/27 04:46:10;;;;;;;1.10;1.00;;;4.90;91.40;;;;;;5078842;28;20103;-57
2020/12/27 04:48:38;;;;;;;1.65;0.80;;;4.90;91.60;;;;;;5078635;28;20051;-57
2020/12/27 04:51:05;;;;;;;0.93;0.80;;;4.90;91.50;;;;;;5074049;28;20041;-57
2020/12/27 04:53:33;;;;;;;2.00;0.73;;;4.90;91.60;;;;;;5072493;28;20123;-57
2020/12/27 04:56:01;;;;;;;2.25;0.70;;;4.90;91.50;;;;;;5076955;28;20035;-57
2020/12/27 04:58:26;;;;;;;1.80;0.68;;;4.80;91.60;;;;;;5073627;28;20059;-57
2020/12/27 05:00:52;;;;;;;1.40;0.50;;;4.80;91.70;;;;;;5082240;28;20479;-57
2020/12/27 05:03:17;;;;;;;1.98;0.77;;;4.80;91.70;;;;;;5081606;28;20466;-57
2020/12/27 05:05:47;;;;;;;0.90;0.63;;;4.80;91.80;;;;;;5081020;28;20048;-57
2020/12/27 05:08:13;;;;;;;1.10;0.68;;;4.80;91.80;;;;;;5080109;28;20044;-57
2020/12/27 05:10:42;;;;;;;1.33;0.40;;;4.80;91.90;;;;;;5078942;28;20492;-57
2020/12/27 05:13:12;;;;;;;1.88;0.93;;;4.80;91.70;;;;;;5080751;28;20043;-57
2020/12/27 05:15:39;;;;;;;1.38;0.60;;;4.80;91.90;;;;;;5079104;28;20039;-57
2020/12/27 05:18:05;;;;;;;0.70;0.60;;;4.80;92.00;;;;;;5078465;28;20082;-57
2020/12/27 05:20:32;;;;;;;1.40;0.60;;;4.80;92.20;;;;;;5078018;28;20112;-56
2020/12/27 05:23:02;;;;;;;0.60;0.50;;;4.80;92.10;;;;;;5076905;28;20486;-57
2020/12/27 05:25:29;;;;;;;0.60;0.50;;;4.80;92.00;;;;;;5080175;28;20059;-57
2020/12/27 05:28:00;;;;;;;0.40;0.40;;;4.70;92.10;;;;;;5078351;28;20097;-57
2020/12/27 05:30:28;;;;;;;1.25;0.60;;;4.80;92.10;;;;;;5077981;28;20045;-57
2020/12/27 05:32:54;;;;;;;0.98;0.70;;;4.80;91.90;;;;;;5077579;28;20425;-57
2020/12/27 05:35:20;;;;;;;0.90;0.47;;;4.80;92.20;;;;;;5074727;28;20036;-57
2020/12/27 05:37:48;;;;;;;2.75;0.65;;;4.70;92.10;;;;;;5074779;28;20577;-56
2020/12/27 05:40:15;;;;;;;0.85;0.68;;;4.70;92.20;;;;;;5079022;28;20048;-57
2020/12/27 05:42:42;;;;;;;1.05;0.70;;;4.70;92.20;;;;;;5077639;28;20051;-57
2020/12/27 05:45:19;;;;;;;0.60;0.45;;;4.70;92.20;;;;;;5078320;28;20039;-57
2020/12/27 05:47:47;;;;;;;0.60;0.40;;;4.70;92.10;;;;;;5074527;28;20081;-57
2020/12/27 05:50:14;;;;;;;1.00;0.50;;;4.70;91.90;;;;;;5077125;28;20383;-57
2020/12/27 05:52:45;;;;;;;0.80;0.50;;;4.80;92.10;;;;;;5076159;28;20102;-57
2020/12/27 05:55:19;;;;;;;0.70;0.45;;;4.80;92.00;;;;;;5081553;28;20471;-57
2020/12/27 05:57:53;;;;;;;1.25;0.50;;;4.70;92.30;;;;;;5080824;28;20496;-57
2020/12/27 06:00:21;;;;;;;0.77;0.30;;;4.70;91.90;;;;;;5079697;28;20394;-57
2020/12/27 06:03:16;;;;;;;0.80;0.35;;;4.80;92.10;;;;;;5075511;28;20037;-57
2020/12/27 06:05:54;;;;;;;0.93;0.40;;;4.80;92.00;;;;;;5078494;28;20462;-60
2020/12/27 06:08:28;;;;;;;1.00;0.40;;;4.70;92.00;;;;;;5079381;28;20042;-56
2020/12/27 06:10:58;;;;;;;1.20;0.35;;;4.80;92.10;;;;;;5075228;28;20048;-56
2020/12/27 06:13:43;;;;;;;1.40;0.40;;;4.80;92.00;;;;;;5085757;28;20111;-57
2020/12/27 06:16:12;;;;;;;1.00;0.40;;;4.80;92.00;;;;;;5081759;28;20032;-57
2020/12/27 06:18:39;;;;;;;0.57;0.30;;;4.80;92.10;;;;;;5080744;28;20036;-57
2020/12/27 06:21:10;;;;;;;2.40;0.30;;;4.80;92.10;;;;;;5076591;28;20509;-56
2020/12/27 06:23:37;;;;;;;0.70;0.30;;;4.80;92.10;;;;;;5075482;28;20031;-57
2020/12/27 06:26:04;;;;;;;0.40;0.20;;;4.80;92.10;;;;;;5080631;28;20054;-56
2020/12/27 06:28:31;;;;;;;0.52;0.20;;;4.80;92.00;;;;;;5080668;28;20101;-56
2020/12/27 06:31:02;;;;;;;0.43;0.30;;;4.80;92.20;;;;;;5079930;28;20042;-56
2020/12/27 06:33:34;;;;;;;1.05;0.25;;;4.80;92.20;;;;;;5076853;28;21348;-57
2020/12/27 06:36:00;;;;;;;0.50;0.20;;;4.90;92.30;;;;;;5084320;28;20047;-57
2020/12/27 06:38:26;;;;;;;1.08;0.32;;;4.90;92.10;;;;;;5074679;28;20040;-57
2020/12/27 06:41:05;;;;;;;0.68;0.30;;;4.90;92.20;;;;;;5081679;28;20509;-57
2020/12/27 06:43:42;;;;;;;0.10;0.10;;;4.90;92.30;;;;;;5078251;28;20051;-57
2020/12/27 06:46:26;;;;;;;0.20;0.20;;;4.90;92.20;;;;;;5081183;28;20090;-57
2020/12/27 06:49:14;;;;;;;0.40;0.20;;;4.90;92.10;;;;;;5077417;28;20048;-57
2020/12/27 06:51:44;;;;;;;0.52;0.10;;;4.90;92.30;;;;;;5075917;28;20103;-57
2020/12/27 06:54:10;;;;;;;0.40;0.10;;;4.90;92.30;;;;;;5076784;28;20089;-56
2020/12/27 06:56:40;;;;;;;0.70;0.20;;;5.00;92.10;;;;;;5077592;28;20044;-57
2020/12/27 06:59:06;;;;;;;0.10;0.10;;;5.00;92.20;;;;;;5083302;28;20538;-57
2020/12/27 07:01:33;;;;;;;0.20;0.10;;;4.90;92.40;;;;;;5079750;28;20102;-57
2020/12/27 07:04:11;;;;;;;0.20;0.00;;;4.90;92.20;;;;;;5077636;28;20037;-57
2020/12/27 07:06:46;;;;;;;0.10;0.10;;;4.90;92.40;;;;;;5083347;28;20048;-56
2020/12/27 07:09:21;;;;;;;0.60;0.10;;;4.90;92.30;;;;;;5083233;28;20047;-57
2020/12/27 07:12:00;;;;;;;0.73;0.10;;;5.00;92.40;;;;;;5081726;28;20037;-57
2020/12/27 07:14:26;;;;;;;0.10;0.10;;;5.00;92.40;;;;;;5079767;28;20044;-57
2020/12/27 07:16:56;;;;;;;0.30;0.10;;;5.00;92.40;;;;;;5085510;28;20032;-57
2020/12/27 07:19:24;;;;;;;0.20;0.03;;;5.00;92.50;;;;;;5081656;28;20047;-56
2020/12/27 07:21:50;;;;;;;0.15;0.10;;;5.00;92.40;;;;;;5082845;28;20043;-57
2020/12/27 07:24:24;;;;;;;0.20;0.00;;;5.00;92.50;;;;;;5079482;28;20028;-56
2020/12/27 07:26:51;;;;;;;0.10;0.00;;;5.00;92.50;;;;;;5084306;28;20032;-57
2020/12/27 07:29:20;;;;;;;0.00;0.00;;;5.00;92.60;;;;;;5080921;28;20040;-57
2020/12/27 07:31:46;;;;;;;0.50;0.10;;;5.00;92.50;;;;;;5079322;28;20036;-56
2020/12/27 07:34:14;;;;;;;2.47;0.17;;;5.00;92.60;;;;;;5080260;28;20123;-57
2020/12/27 07:36:40;;;;;;;1.30;0.00;;;5.10;92.80;;;;;;5082045;28;20044;-56
2020/12/27 07:39:08;;;;;;;0.20;0.10;;;5.10;92.70;;;;;;5081627;28;20047;-57
2020/12/27 07:41:36;;;;;;;0.25;0.00;;;5.10;92.80;;;;;;5080378;28;20048;-57
2020/12/27 07:44:08;;;;;;;0.20;0.00;;;5.10;92.70;;;;;;5080644;28;20058;-57
2020/12/27 07:46:34;;;;;;;0.75;0.40;;;5.10;92.70;;;;;;5084258;28;20032;-57
2020/12/27 07:49:00;;;;;;;0.00;0.00;;;5.10;92.60;;;;;;5080335;28;20552;-57
2020/12/27 07:51:25;;;;;;;0.50;0.00;;;5.20;92.60;;;;;;5083709;28;20036;-56
2020/12/27 07:53:56;;;;;;;0.75;0.10;;;5.20;92.80;;;;;;5081937;28;20044;-56
2020/12/27 07:56:27;;;;;;;0.17;0.00;;;5.20;92.60;;;;;;5082087;28;20037;-57
2020/12/27 07:58:58;;;;;;;0.73;0.00;;;5.20;92.70;;;;;;5073506;28;20461;-56
2020/12/27 08:01:25;;;;;;;0.43;0.00;;;5.20;92.60;;;;;;5077462;28;20044;-56
2020/12/27 08:03:52;;;;;;;0.40;0.00;;;5.20;92.80;;;;;;5076331;28;20445;-57
2020/12/27 08:06:19;;;;;;;0.35;0.00;;;5.30;92.70;;;;;;5083435;28;20410;-56
2020/12/27 08:08:45;;;;;;;0.10;0.00;;;5.30;92.60;;;;;;5076059;28;20032;-56
2020/12/27 08:11:23;;;;;;;0.25;0.00;;;5.30;92.90;;;;;;5073969;28;20479;-57
2020/12/27 08:13:51;;;;;;;0.10;0.00;;;5.30;92.60;;;;;;5076213;28;20398;-57
2020/12/27 08:16:16;;;;;;;0.28;0.00;;;5.30;92.60;;;;;;5076227;28;20028;-57
2020/12/27 08:18:42;;;;;;;0.47;0.00;;;5.30;92.70;;;;;;5080883;28;20041;-56
2020/12/27 08:21:08;;;;;;;0.52;0.00;;;5.40;92.60;;;;;;5078958;28;20124;-56
2020/12/27 08:23:33;;;;;;;2.75;0.03;;;5.40;92.60;;;;;;5078208;28;20121;-61
2020/12/27 08:26:00;;;;;;;0.55;0.00;;;5.40;92.70;;;;;;5082787;28;20048;-60
2020/12/27 08:28:25;;;;;;;1.80;0.00;;;5.40;92.60;;;;;;5075288;28;20045;-60
2020/12/27 08:30:51;;;;;;;1.83;0.03;;;5.40;92.60;;;;;;5081563;28;20052;-60
2020/12/27 08:33:19;;;;;;;0.20;0.00;;;5.40;92.50;;;;;;5081895;28;20063;-61
2020/12/27 08:35:49;;;;;;;1.48;0.00;;;5.40;92.60;;;;;;5079311;28;20032;-60
2020/12/27 08:38:20;;;;;;;0.52;0.00;;;5.40;92.60;;;;;;5080022;28;20685;-61
2020/12/27 08:40:52;;;;;;;0.60;0.00;;;5.40;92.60;;;;;;5078668;28;20051;-60
2020/12/27 08:43:39;;;;;;;1.38;0.00;;;5.40;92.50;;;;;;5079177;28;20118;-60
2020/12/27 08:46:08;;;;;;;1.77;0.15;;;5.40;92.50;;;;;;5072061;28;20490;-61
2020/12/27 08:48:47;;;;;;;3.97;0.15;;;5.40;92.60;;;;;;5078680;28;20051;-60
2020/12/27 08:51:13;;;;;;;0.20;0.00;;;5.50;92.50;;;;;;5077222;28;20080;-58
2020/12/27 08:53:44;;;;;;;0.15;0.00;;;5.40;92.60;;;;;;5078528;28;20474;-58
2020/12/27 08:56:11;;;;;;;0.10;0.00;;;5.40;92.60;;;;;;5077299;28;20067;-58
2020/12/27 08:58:37;;;;;;;0.32;0.00;;;5.40;92.90;;;;;;5076277;28;20036;-59
2020/12/27 09:01:22;;;;;;;0.45;0.00;;;5.40;92.50;;;;;;5080961;28;20047;-59
2020/12/27 09:03:49;;;;;;;0.10;0.00;;;5.40;92.60;;;;;;5075160;28;20115;-58
2020/12/27 09:06:15;;;;;;;0.10;0.00;;;5.40;92.50;;;;;;5080293;28;20051;-58
2020/12/27 09:08:40;;;;;;;0.52;0.00;;;5.50;92.70;;;;;;5080779;28;20062;-58
2020/12/27 09:11:06;;;;;;;1.35;0.00;;;5.40;92.70;;;;;;5077988;28;20486;-58
2020/12/27 09:13:39;;;;;;;2.83;0.00;;;5.50;92.60;;;;;;5078170;28;20087;-58
2020/12/27 09:16:05;;;;;;;0.63;0.00;;;5.40;92.70;;;;;;5076722;28;20061;-58
2020/12/27 09:18:33;;;;;;;1.45;0.00;;;5.40;92.60;;;;;;5077657;28;20044;-58
2020/12/27 09:21:08;;;;;;;0.30;0.00;;;5.40;92.70;;;;;;5076671;28;20101;-56
2020/12/27 09:23:34;;;;;;;0.00;0.00;;;5.50;92.60;;;;;;5076785;28;20763;-56
2020/12/27 09:26:11;;;;;;;0.20;0.00;;;5.50;92.70;;;;;;5076607;28;20126;-56
2020/12/27 09:28:38;;;;;;;0.63;0.00;;;5.50;92.60;;;;;;5076982;28;20198;-58
2020/12/27 09:31:08;;;;;;;0.20;0.15;;;5.50;92.60;;;;;;5078173;28;20040;-57
2020/12/27 09:33:37;;;;;;;0.15;0.00;;;5.50;92.70;;;;;;5081378;28;20115;-57
2020/12/27 09:36:07;;;;;;;0.00;0.00;;;5.50;92.60;;;;;;5081312;28;20032;-56
2020/12/27 09:38:37;;;;;;;0.40;0.00;;;5.50;92.60;;;;;;5078977;28;20044;-57
2020/12/27 09:41:08;;;;;;;0.20;0.00;;;5.50;92.60;;;;;;5078164;28;20051;-56
2020/12/27 09:43:59;;;;;;;0.10;0.00;;;5.50;92.70;;;;;;5076659;28;20043;-56
2020/12/27 09:46:46;;;;;;;0.10;0.00;;;5.50;92.70;;;;;;5076073;28;20044;-56
2020/12/27 09:49:22;;;;;;;0.00;0.00;;;5.50;92.80;;;;;;5078035;28;20131;-56
2020/12/27 09:52:03;;;;;;;;;;;5.50;92.60;;;;;;5078893;28;20432;-56
2020/12/27 09:54:30;;;;;;;1.00;0.00;;;5.50;92.50;;;;;;5078268;28;20345;-57
2020/12/27 09:56:57;;;;;;;0.10;0.00;;;5.50;92.50;;;;;;5076829;28;20036;-56
2020/12/27 09:59:23;;;;;;;0.68;0.20;;;5.50;92.70;;;;;;5079713;28;20040;-57
2020/12/27 10:01:49;;;;;;;0.20;0.00;;;5.50;92.50;;;;;;5078797;28;20036;-56
2020/12/27 10:04:14;;;;;;;1.67;0.13;;;5.60;92.60;;;;;;5078171;28;20383;-56
2020/12/27 10:06:40;;;;;;;0.55;0.30;;;5.50;92.40;;;;;;5078244;28;20135;-56
2020/12/27 10:09:06;;;;;;;0.00;0.00;;;5.50;92.30;;;;;;5078198;28;20046;-56
2020/12/27 10:11:31;;;;;;;0.08;0.00;;;5.50;92.50;;;;;;5079078;28;20086;-56
2020/12/27 10:13:57;;;;;;;0.30;0.00;;;5.50;92.50;;;;;;5076482;28;20158;-56
2020/12/27 10:16:23;;;;;;;0.00;0.00;;;5.60;92.40;;;;;;5082905;28;20539;-57
2020/12/27 10:18:48;;;;;;;0.00;0.00;;;5.50;92.50;;;;;;5080074;28;20425;-56
2020/12/27 10:21:14;;;;;;;0.45;0.00;;;5.60;92.30;;;;;;5079024;28;20425;-56
2020/12/27 10:23:39;;;;;;;0.00;0.00;;;5.50;92.30;;;;;;5075952;28;20495;-56
2020/12/27 10:26:06;;;;;;;1.88;0.00;;;5.60;92.20;;;;;;5078887;28;20043;-56
2020/12/27 10:28:34;;;;;;;0.00;0.00;;;5.60;92.30;;;;;;5079315;28;20120;-57
2020/12/27 10:31:00;;;;;;;0.10;0.00;;;5.60;92.40;;;;;;5075839;28;20045;-56
2020/12/27 10:33:26;;;;;;;0.00;0.00;;;5.60;92.40;;;;;;5076762;28;20040;-57
2020/12/27 10:35:52;;;;;;;2.55;0.00;;;5.60;92.40;;;;;;5078223;28;20051;-56
2020/12/27 10:38:18;;;;;;;0.80;0.00;;;5.60;92.50;;;;;;5077055;28;20063;-56
2020/12/27 10:40:43;;;;;;;0.10;0.00;;;5.60;92.30;;;;;;5078970;28;20494;-56
2020/12/27 10:43:09;;;;;;;0.20;0.00;;;5.60;92.60;;;;;;5077493;28;20117;-56
2020/12/27 10:45:35;;;;;;;0.15;0.00;;;5.60;92.60;;;;;;5077671;28;20045;-56
2020/12/27 10:48:00;;;;;;;0.15;0.00;;;5.50;92.50;;;;;;5084058;28;20129;-56
2020/12/27 10:50:26;;;;;;;0.90;0.00;;;5.50;92.60;;;;;;5077683;28;20508;-56
2020/12/27 10:52:52;;;;;;;0.50;0.00;;;5.60;92.40;;;;;;5080658;28;20055;-56
2020/12/27 10:55:17;;;;;;;0.03;0.00;;;5.50;92.40;;;;;;5078301;28;20036;-56
2020/12/27 10:57:43;;;;;;;1.17;0.00;;;5.50;92.50;;;;;;5079746;28;20101;-56
2020/12/27 11:00:08;;;;;;;1.38;0.00;;;5.50;92.30;;;;;;5078776;28;20036;-56
2020/12/27 11:02:34;;;;;;;0.85;0.00;;;5.60;92.30;;;;;;5076169;28;20047;-57
2020/12/27 11:05:00;;;;;;;0.10;0.00;;;5.60;92.10;;;;;;5078532;28;20052;-57
2020/12/27 11:07:25;;;;;;;0.03;0.00;;;5.60;92.50;;;;;;5077128;28;20040;-56
2020/12/27 11:09:51;;;;;;;0.20;0.20;;;5.60;92.40;;;;;;5078778;28;20123;-56
2020/12/27 11:12:16;;;;;;;0.10;0.00;;;5.60;92.50;;;;;;5079945;28;20044;-57
2020/12/27 11:14:42;;;;;;;0.10;0.00;;;5.50;92.40;;;;;;5078433;28;20043;-57
2020/12/27 11:17:08;;;;;;;1.27;0.00;;;5.50;92.40;;;;;;5082167;28;20068;-57
2020/12/27 11:19:34;;;;;;;0.40;0.00;;;5.60;92.50;;;;;;5076408;28;20040;-57
2020/12/27 11:21:59;;;;;;;0.00;0.00;;;5.50;92.50;;;;;;5079590;28;20044;-56
2020/12/27 11:24:25;;;;;;;0.00;0.00;;;5.50;92.40;;;;;;5077150;28;20060;-56
2020/12/27 11:26:54;;;;;;;8.43;0.57;;;5.50;92.50;;;;;;5081027;28;20071;-57
2020/12/27 11:29:20;;;;;;;0.08;0.00;;;5.60;92.50;;;;;;5078564;28;20039;-56
2020/12/27 11:31:46;;;;;;;0.10;0.00;;;5.50;92.40;;;;;;5079186;28;20064;-58
2020/12/27 11:34:12;;;;;;;0.10;0.00;;;5.60;92.40;;;;;;5078046;28;20055;-57
2020/12/27 11:36:38;;;;;;;0.35;0.00;;;5.50;92.50;;;;;;5079415;28;20043;-57
2020/12/27 11:39:04;;;;;;;0.00;0.00;;;5.60;92.50;;;;;;5076477;28;20098;-57
2020/12/27 11:41:29;;;;;;;0.20;0.00;;;5.50;92.40;;;;;;5081687;28;20134;-57
2020/12/27 11:43:55;;;;;;;0.05;0.00;;;5.50;92.60;;;;;;5081036;28;21144;-57
2020/12/27 11:46:26;;;;;;;0.10;0.00;;;5.50;92.60;;;;;;5079501;28;20040;-57
2020/12/27 11:48:52;;;;;;;0.30;0.00;;;5.50;92.60;;;;;;5079821;28;20512;-57
2020/12/27 11:51:18;;;;;;;0.00;0.00;;;5.50;92.70;;;;;;5081709;28;20036;-57
2020/12/27 11:53:43;;;;;;;0.00;0.00;;;5.50;92.80;;;;;;5080127;28;20486;-57
2020/12/27 11:56:15;;;;;;;0.13;0.00;;;5.50;92.90;;;;;;5084199;28;20036;-57
2020/12/27 11:58:41;;;;;;;0.00;0.00;;;5.50;92.90;;;;;;5078648;28;20040;-56
2020/12/27 12:01:11;;;;;;;0.00;0.00;;;5.50;92.90;;;;;;5077003;28;20032;-56
2020/12/27 12:03:37;;;;;;;0.00;0.00;;;5.50;92.80;;;;;;5082986;28;20123;-57
2020/12/27 12:06:02;;;;;;;0.45;0.00;;;5.60;92.70;;;;;;5082142;28;20124;-57
2020/12/27 12:08:28;;;;;;;0.10;0.00;;;5.50;93.00;;;;;;5081372;28;20052;-57
2020/12/27 12:10:53;;;;;;;0.00;0.00;;;5.50;93.10;;;;;;5082054;28;20124;-57
2020/12/27 12:13:19;;;;;;;0.38;0.00;;;5.50;92.90;;;;;;5080078;28;20052;-57
2020/12/27 12:15:45;;;;;;;0.10;0.00;;;5.50;93.00;;;;;;5077819;28;20041;-57
2020/12/27 12:18:10;;;;;;;4.85;0.10;;;5.50;92.90;;;;;;5077378;28;20036;-57
2020/12/27 12:20:42;;;;;;;0.63;0.00;;;5.50;92.90;;;;;;5077269;28;20032;-57
2020/12/27 12:23:08;;;;;;;1.08;0.10;;;5.50;92.90;;;;;;5082109;28;21464;-57
2020/12/27 12:25:35;;;;;;;1.15;0.00;;;5.50;93.00;;;;;;5079178;28;20052;-57
2020/12/27 12:28:00;;;;;;;4.22;0.30;;;5.50;93.00;;;;;;5079256;28;20406;-57
2020/12/27 12:30:26;;;;;;;3.05;0.00;;;5.50;92.90;;;;;;5078955;28;20048;-57
2020/12/27 12:32:52;;;;;;;0.45;0.00;;;5.50;93.10;;;;;;5078629;28;20028;-57
2020/12/27 12:35:18;;;;;;;5.15;0.10;;;5.50;93.00;;;;;;5080321;28;20090;-57
2020/12/27 12:37:44;;;;;;;3.92;0.00;;;5.50;93.00;;;;;;5082476;28;20487;-57
2020/12/27 12:40:10;;;;;;;0.95;0.00;;;5.50;93.00;;;;;;5084011;28;20044;-56
2020/12/27 12:42:36;;;;;;;2.63;0.05;;;5.50;93.00;;;;;;5078377;28;20569;-56
2020/12/27 12:45:06;;;;;;;1.80;0.00;;;5.50;93.10;;;;;;5080419;28;21135;-56
2020/12/27 12:47:32;;;;;;;0.40;0.00;;;5.50;93.10;;;;;;5078615;28;20043;-56
2020/12/27 12:49:58;;;;;;;0.30;0.00;;;5.50;93.10;;;;;;5082313;28;20047;-56
2020/12/27 12:52:23;;;;;;;2.95;0.22;;;5.40;93.20;;;;;;5080565;28;20040;-57
2020/12/27 12:54:49;;;;;;;0.20;0.00;;;5.50;93.20;;;;;;5080153;28;20492;-56
2020/12/27 12:57:15;;;;;;;0.80;0.47;;;5.50;93.20;;;;;;5079888;28;20032;-56
2020/12/27 12:59:40;;;;;;;0.00;0.00;;;5.50;93.30;;;;;;5081435;28;20048;-57
2020/12/27 13:02:06;;;;;;;0.28;0.00;;;5.50;93.20;;;;;;5080866;28;20040;-57